Time;durP1;ratioP1;P1;durP2;ratioP2;P2;SDS_P1;SDS_P2;PMS_P1;PMS_P2;Temp;Humidity;BMP_temperature;BMP_pressure;BME280_temperature;BME280_humidity;BME280_pressure;Samples;Min_cycle;Max_cycle;Signal;HPM_P1;HPM_P2
2023/03/12 00:01:36;;;;;;;;;;;;;;;3.65;55.31;93750.91;4201811;28;19920;-56
2023/03/12 00:03:39;;;;;;;;;;;;;;;3.65;54.84;93762.06;4221587;28;20379;-57
2023/03/12 00:05:41;;;;;;;;;;;;;;;3.54;55.29;93759.66;4197137;28;20298;-57
2023/03/12 00:07:42;;;;;;;;;;;;;;;3.49;55.37;93752.31;4216973;28;20010;-58
2023/03/12 00:09:44;;;;;;;;;;;;;;;3.45;55.71;93768.25;4221007;28;19971;-59
2023/03/12 00:11:46;;;;;;;;;;;;;;;3.41;55.43;93749.59;4201456;28;19927;-59
2023/03/12 00:13:48;;;;;;;;;;;;;;;3.47;55.44;93767.16;4210082;28;20063;-58
2023/03/12 00:15:50;;;;;;;;;;;;;;;3.33;56.32;93796.06;4215519;28;19934;-59
2023/03/12 00:17:51;;;;;;;;;;;;;;;3.28;56.40;93780.94;4220148;28;19943;-57
2023/03/12 00:19:53;;;;;;;;;;;;;;;3.23;56.74;93777.97;4210822;28;19919;-56
2023/03/12 00:21:54;;;;;;;;;;;;;;;3.35;56.36;93781.22;4216436;28;19920;-56
2023/03/12 00:23:56;;;;;;;;;;;;;;;3.34;56.16;93779.59;4223218;28;19962;-54
2023/03/12 00:26:04;;;;;;;;;;;;;;;3.38;56.17;93790.50;4228730;28;19927;-58
2023/03/12 00:28:06;;;;;;;;;;;;;;;3.30;55.98;93788.59;4224246;28;19982;-58
2023/03/12 00:30:09;;;;;;;;;;;;;;;3.38;56.37;93796.47;4220019;28;19972;-59
2023/03/12 00:32:10;;;;;;;;;;;;;;;3.44;55.78;93795.94;4216695;28;20439;-58
2023/03/12 00:34:12;;;;;;;;;;;;;;;3.30;55.59;93809.28;4223801;28;20422;-56
2023/03/12 00:36:13;;;;;;;;;;;;;;;3.32;55.79;93809.97;4213037;28;19920;-56
2023/03/12 00:38:15;;;;;;;;;;;;;;;3.36;55.39;93792.41;4227732;28;20358;-57
2023/03/12 00:40:16;;;;;;;;;;;;;;;3.38;55.29;93806.03;4228769;28;19962;-59
2023/03/12 00:42:18;;;;;;;;;;;;;;;3.28;56.07;93804.25;4229206;28;20362;-57
2023/03/12 00:44:19;;;;;;;;;;;;;;;3.29;55.84;93818.00;4226801;28;19920;-59
2023/03/12 00:46:21;;;;;;;;;;;;;;;3.25;56.21;93801.13;4222897;28;19920;-56
2023/03/12 00:48:24;;;;;;;;;;;;;;;3.28;55.77;93809.41;4216119;28;19924;-56
2023/03/12 00:50:25;;;;;;;;;;;;;;;3.24;56.03;93794.31;4194080;28;19920;-55
2023/03/12 00:52:27;;;;;;;;;;;;;;;3.26;55.49;93810.50;4195775;28;19920;-56
2023/03/12 00:54:28;;;;;;;;;;;;;;;3.30;55.62;93800.72;4195378;28;19921;-57
2023/03/12 00:56:30;;;;;;;;;;;;;;;3.28;56.15;93813.78;4179170;28;19921;-59
2023/03/12 00:58:31;;;;;;;;;;;;;;;3.25;55.98;93808.91;4212249;28;19931;-59
2023/03/12 01:00:33;;;;;;;;;;;;;;;3.26;55.92;93793.22;4212195;28;19970;-57
2023/03/12 01:02:35;;;;;;;;;;;;;;;3.26;56.07;93813.91;4211526;28;19931;-56
2023/03/12 01:04:36;;;;;;;;;;;;;;;3.28;56.45;93806.81;4195558;28;19971;-56
2023/03/12 01:08:59;;;;;;;;;;;;;;;3.18;56.52;93802.59;4226331;28;19919;-57
2023/03/12 01:11:01;;;;;;;;;;;;;;;3.10;56.21;93811.06;4228376;28;19969;-59
2023/03/12 01:13:03;;;;;;;;;;;;;;;3.04;56.74;93814.19;4230478;28;19920;-57
2023/03/12 01:15:04;;;;;;;;;;;;;;;3.00;57.24;93820.59;4231017;28;19927;-59
2023/03/12 01:17:06;;;;;;;;;;;;;;;3.02;57.03;93824.66;4231210;28;19923;-57
2023/03/12 01:19:07;;;;;;;;;;;;;;;3.02;57.35;93826.44;4231913;28;19940;-57
2023/03/12 01:21:09;;;;;;;;;;;;;;;3.04;57.40;93819.38;4220171;28;19928;-57
2023/03/12 01:23:10;;;;;;;;;;;;;;;3.08;57.34;93839.66;4215374;28;19935;-58
2023/03/12 01:25:12;;;;;;;;;;;;;;;3.08;57.22;93826.72;4205698;28;19966;-57
2023/03/12 01:27:13;;;;;;;;;;;;;;;3.03;57.17;93831.50;4211839;28;19936;-57
2023/03/12 01:29:15;;;;;;;;;;;;;;;3.11;57.47;93824.81;4201495;28;19926;-59
2023/03/12 01:31:20;;;;;;;;;;;;;;;3.15;56.91;93836.53;4208858;28;19921;-56
2023/03/12 01:33:21;;;;;;;;;;;;;;;3.12;56.98;93826.44;4209740;28;20139;-57
2023/03/12 01:35:23;;;;;;;;;;;;;;;2.97;57.12;93849.31;4202048;28;20003;-56
2023/03/12 01:37:26;;;;;;;;;;;;;;;2.77;57.62;93833.75;4199767;28;19920;-59
2023/03/12 01:39:27;;;;;;;;;;;;;;;2.76;57.70;93824.38;4180943;28;19928;-56
2023/03/12 01:41:31;;;;;;;;;;;;;;;2.78;57.86;93825.06;4199372;28;19924;-58
2023/03/12 01:43:33;;;;;;;;;;;;;;;2.76;58.10;93826.13;4201585;28;20063;-55
2023/03/12 01:45:53;;;;;;;;;;;;;;;2.83;57.96;93828.03;4196807;28;19982;-54
2023/03/12 01:47:54;;;;;;;;;;;;;;;2.83;57.83;93835.81;4208509;28;19928;-58
2023/03/12 01:49:56;;;;;;;;;;;;;;;2.92;57.57;93825.59;4213614;28;19924;-55
2023/03/12 01:52:02;;;;;;;;;;;;;;;2.95;57.24;93810.66;4209424;28;19982;-54
2023/03/12 01:54:04;;;;;;;;;;;;;;;3.01;57.33;93827.38;4223349;28;20296;-57
2023/03/12 01:56:06;;;;;;;;;;;;;;;3.10;57.34;93818.00;4217540;28;19927;-58
2023/03/12 01:58:08;;;;;;;;;;;;;;;3.22;56.83;93825.50;4213792;28;19920;-56
2023/03/12 02:00:18;;;;;;;;;;;;;;;3.27;56.75;93823.34;4217837;28;20002;-55
2023/03/12 02:02:25;;;;;;;;;;;;;;;3.36;56.33;93824.28;4202997;28;19921;-53
2023/03/12 02:04:27;;;;;;;;;;;;;;;3.38;56.27;93827.56;4194602;28;19920;-55
2023/03/12 02:06:34;;;;;;;;;;;;;;;3.35;56.39;93827.81;4212749;28;19920;-57
2023/03/12 02:08:36;;;;;;;;;;;;;;;3.30;55.80;93827.41;4186942;28;19950;-58
2023/03/12 02:10:37;;;;;;;;;;;;;;;3.34;55.51;93831.38;4208666;28;19927;-57
2023/03/12 02:12:39;;;;;;;;;;;;;;;3.42;55.73;93836.69;4227457;28;19959;-55
2023/03/12 02:14:40;;;;;;;;;;;;;;;3.49;55.05;93834.34;4213896;28;19924;-50
2023/03/12 02:16:42;;;;;;;;;;;;;;;3.49;55.15;93827.41;4203925;28;20364;-55
2023/03/12 02:18:43;;;;;;;;;;;;;;;3.45;55.48;93830.41;4197121;28;19944;-54
2023/03/12 02:20:45;;;;;;;;;;;;;;;3.40;54.91;93825.66;4228116;28;19958;-52
2023/03/12 02:22:48;;;;;;;;;;;;;;;3.40;55.47;93829.97;4218155;28;19920;-56
2023/03/12 02:24:52;;;;;;;;;;;;;;;3.31;55.59;93846.34;4227725;28;19919;-53
2023/03/12 02:26:54;;;;;;;;;;;;;;;3.20;55.59;93835.16;4224100;28;19920;-54
2023/03/12 02:28:56;;;;;;;;;;;;;;;3.15;55.86;93847.69;4222529;28;20499;-54
2023/03/12 02:30:58;;;;;;;;;;;;;;;3.08;55.71;93844.03;4214779;28;19924;-57
2023/03/12 02:33:01;;;;;;;;;;;;;;;3.22;55.85;93842.78;4229019;28;19928;-52
2023/03/12 02:35:03;;;;;;;;;;;;;;;3.25;55.27;93838.19;4228368;27;19928;-55
2023/03/12 02:37:05;;;;;;;;;;;;;;;3.22;55.45;93843.59;4230504;28;20358;-57
2023/03/12 02:39:08;;;;;;;;;;;;;;;3.19;56.17;93853.44;4229545;28;20305;-52
2023/03/12 02:41:16;;;;;;;;;;;;;;;3.30;55.99;93849.91;4228971;28;20366;-55
2023/03/12 02:43:18;;;;;;;;;;;;;;;3.31;55.56;93860.09;4230279;28;19923;-52
2023/03/12 02:45:20;;;;;;;;;;;;;;;3.23;55.60;93859.97;4215934;28;19924;-52
2023/03/12 02:47:21;;;;;;;;;;;;;;;3.27;55.75;93861.34;4226484;28;19928;-55
2023/03/12 02:49:24;;;;;;;;;;;;;;;3.28;56.45;93868.94;4220173;28;19919;-53
2023/03/12 02:51:25;;;;;;;;;;;;;;;3.34;56.37;93869.38;4228575;28;19920;-52
2023/03/12 02:53:27;;;;;;;;;;;;;;;3.41;56.21;93879.03;4229899;27;19919;-54
2023/03/12 02:55:29;;;;;;;;;;;;;;;3.21;56.58;93878.22;4229130;28;19920;-54
2023/03/12 02:57:30;;;;;;;;;;;;;;;3.22;56.47;93889.38;4216702;28;19953;-54
2023/03/12 02:59:32;;;;;;;;;;;;;;;3.24;56.56;93883.13;4214729;28;19920;-57
2023/03/12 03:01:33;;;;;;;;;;;;;;;3.32;56.55;93884.22;4207631;28;20357;-54
2023/03/12 03:03:35;;;;;;;;;;;;;;;3.32;56.14;93885.03;4200373;28;19920;-54
2023/03/12 03:05:36;;;;;;;;;;;;;;;3.22;55.88;93877.25;4206985;28;19967;-51
2023/03/12 03:07:38;;;;;;;;;;;;;;;3.27;55.92;93872.50;4205272;28;19927;-52
2023/03/12 03:09:39;;;;;;;;;;;;;;;3.23;55.27;93860.78;4201663;28;19920;-51
2023/03/12 03:11:41;;;;;;;;;;;;;;;3.31;55.74;93880.00;4210073;28;19967;-51
2023/03/12 03:13:42;;;;;;;;;;;;;;;3.18;55.78;93875.06;4207566;28;20032;-55
2023/03/12 03:15:44;;;;;;;;;;;;;;;3.07;55.33;93881.19;4229269;28;19930;-55
2023/03/12 03:17:45;;;;;;;;;;;;;;;3.10;55.68;93880.09;4229558;28;19945;-53
2023/03/12 03:19:47;;;;;;;;;;;;;;;2.98;55.51;93874.25;4226520;28;19927;-53
2023/03/12 03:21:48;;;;;;;;;;;;;;;2.89;55.68;93869.88;4223813;28;19951;-54
2023/03/12 03:23:50;;;;;;;;;;;;;;;2.81;55.17;93878.28;4212918;28;19983;-53
2023/03/12 03:25:51;;;;;;;;;;;;;;;2.79;55.42;93875.81;4198045;28;20387;-53
2023/03/12 03:27:53;;;;;;;;;;;;;;;2.71;55.49;93888.63;4196944;28;19924;-55
2023/03/12 03:29:54;;;;;;;;;;;;;;;2.74;55.09;93878.00;4204587;28;19962;-52
2023/03/12 03:31:56;;;;;;;;;;;;;;;2.67;54.97;93863.97;4211818;28;20370;-55
2023/03/12 03:33:58;;;;;;;;;;;;;;;2.55;54.88;93860.63;4197334;28;20288;-53
2023/03/12 03:36:00;;;;;;;;;;;;;;;2.58;54.85;93865.56;4205432;28;19919;-54
2023/03/12 03:38:02;;;;;;;;;;;;;;;2.57;54.95;93863.09;4210808;28;19943;-56
2023/03/12 03:40:04;;;;;;;;;;;;;;;2.53;55.44;93883.22;4195976;28;19920;-54
2023/03/12 03:42:05;;;;;;;;;;;;;;;2.63;55.42;93883.28;4199397;28;20290;-52
2023/03/12 03:44:07;;;;;;;;;;;;;;;2.64;55.11;93884.88;4207991;28;20371;-53
2023/03/12 03:46:09;;;;;;;;;;;;;;;2.71;55.05;93896.38;4212404;28;20023;-56
2023/03/12 03:48:11;;;;;;;;;;;;;;;2.70;54.82;93892.13;4199619;28;19920;-52
2023/03/12 03:50:12;;;;;;;;;;;;;;;2.62;55.15;93900.56;4194952;28;19969;-52
2023/03/12 03:52:14;;;;;;;;;;;;;;;2.67;54.82;93892.41;4196978;28;19921;-54
2023/03/12 03:54:15;;;;;;;;;;;;;;;2.68;54.00;93901.78;4197359;28;19970;-52
2023/03/12 03:56:17;;;;;;;;;;;;;;;2.62;54.23;93897.13;4204039;28;19973;-55
2023/03/12 03:58:18;;;;;;;;;;;;;;;2.58;54.36;93896.59;4217052;28;19920;-55
2023/03/12 04:00:20;;;;;;;;;;;;;;;2.48;54.71;93913.81;4209744;28;19920;-54
2023/03/12 04:02:22;;;;;;;;;;;;;;;2.41;54.80;93921.28;4217414;28;19955;-53
2023/03/12 04:04:23;;;;;;;;;;;;;;;2.35;55.33;93908.88;4218794;28;20309;-53
2023/03/12 04:06:25;;;;;;;;;;;;;;;2.33;54.76;93910.75;4222535;28;20521;-55
2023/03/12 04:08:27;;;;;;;;;;;;;;;2.29;54.93;93918.91;4228544;28;20373;-53
2023/03/12 04:10:29;;;;;;;;;;;;;;;2.28;54.67;93920.69;4228934;28;19926;-54
2023/03/12 04:12:31;;;;;;;;;;;;;;;2.19;54.57;93921.44;4229477;28;19920;-54
2023/03/12 04:14:32;;;;;;;;;;;;;;;2.15;53.82;93912.28;4228853;28;19976;-55
2023/03/12 04:16:34;;;;;;;;;;;;;;;2.16;53.16;93924.28;4228511;28;20303;-51
2023/03/12 04:18:37;;;;;;;;;;;;;;;2.15;53.37;93951.03;4229053;28;19920;-54
2023/03/12 04:20:39;;;;;;;;;;;;;;;2.17;53.31;93934.50;4226830;28;19927;-54
2023/03/12 04:22:40;;;;;;;;;;;;;;;2.15;53.67;93945.88;4215559;28;19920;-57
2023/03/12 04:24:42;;;;;;;;;;;;;;;2.23;53.79;93940.91;4217593;28;19932;-56
2023/03/12 04:26:43;;;;;;;;;;;;;;;2.14;53.32;93945.06;4194972;28;20374;-58
2023/03/12 04:28:45;;;;;;;;;;;;;;;2.15;53.85;93940.72;4220555;28;20319;-59
2023/03/12 04:30:53;;;;;;;;;;;;;;;2.23;53.59;93946.06;4225787;28;19919;-60
2023/03/12 04:32:55;;;;;;;;;;;;;;;2.19;53.31;93957.59;4219255;28;19926;-55
2023/03/12 04:34:57;;;;;;;;;;;;;;;2.27;53.26;93949.22;4227530;28;20357;-56
2023/03/12 04:36:59;;;;;;;;;;;;;;;2.37;53.24;93956.09;4228766;28;19973;-58
2023/03/12 04:39:05;;;;;;;;;;;;;;;2.24;53.22;93945.94;4229119;28;20390;-56
2023/03/12 04:41:11;;;;;;;;;;;;;;;2.15;53.70;93969.13;4228033;28;19920;-57
2023/03/12 04:43:13;;;;;;;;;;;;;;;2.12;54.20;93964.22;4216573;28;20015;-58
2023/03/12 04:45:14;;;;;;;;;;;;;;;2.12;54.11;93974.56;4218725;28;19920;-57
2023/03/12 04:47:16;;;;;;;;;;;;;;;2.24;53.82;93976.16;4231418;28;19926;-58
2023/03/12 04:49:17;;;;;;;;;;;;;;;2.19;53.98;93970.53;4231473;28;19955;-54
2023/03/12 04:51:19;;;;;;;;;;;;;;;2.17;54.34;93977.56;4228707;28;19927;-54
2023/03/12 04:53:20;;;;;;;;;;;;;;;2.08;54.26;93980.94;4229223;28;19927;-56
2023/03/12 04:55:22;;;;;;;;;;;;;;;2.10;54.00;93990.19;4230758;28;20215;-59
2023/03/12 04:57:23;;;;;;;;;;;;;;;2.14;53.99;93988.19;4219130;28;19990;-58
2023/03/12 04:59:25;;;;;;;;;;;;;;;2.10;53.63;93989.38;4217686;28;20007;-60
2023/03/12 05:01:28;;;;;;;;;;;;;;;2.17;53.45;94000.84;4224352;28;19928;-59
2023/03/12 05:03:29;;;;;;;;;;;;;;;2.09;53.62;94000.63;4216844;28;19919;-55
2023/03/12 05:05:31;;;;;;;;;;;;;;;2.23;53.12;93998.56;4218011;28;19920;-51
2023/03/12 05:07:32;;;;;;;;;;;;;;;2.33;53.16;93993.47;4217171;28;19920;-56
2023/03/12 05:09:34;;;;;;;;;;;;;;;2.36;53.14;93998.38;4198451;28;20468;-53
2023/03/12 05:11:35;;;;;;;;;;;;;;;2.30;52.90;94000.66;4199801;28;20454;-55
2023/03/12 05:13:40;;;;;;;;;;;;;;;2.18;53.68;94005.88;4215106;28;20318;-53
2023/03/12 05:15:42;;;;;;;;;;;;;;;1.99;53.74;94008.31;4215029;28;19928;-58
2023/03/12 05:17:43;;;;;;;;;;;;;;;2.16;53.13;94005.19;4195346;28;19967;-54
2023/03/12 05:19:45;;;;;;;;;;;;;;;2.30;53.44;94014.38;4198332;28;19971;-54
2023/03/12 05:21:46;;;;;;;;;;;;;;;2.31;53.65;94005.69;4205819;28;19924;-56
2023/03/12 05:23:48;;;;;;;;;;;;;;;2.43;53.30;94009.88;4214914;28;19920;-54
2023/03/12 05:25:49;;;;;;;;;;;;;;;2.52;52.36;94016.03;4229522;28;20422;-57
2023/03/12 05:27:51;;;;;;;;;;;;;;;2.58;51.51;94014.69;4231502;28;19991;-54
2023/03/12 05:29:52;;;;;;;;;;;;;;;2.52;52.33;94023.81;4231257;28;20401;-54
2023/03/12 05:31:54;;;;;;;;;;;;;;;2.60;52.23;94023.16;4207970;28;19920;-49
2023/03/12 05:33:55;;;;;;;;;;;;;;;2.46;52.61;94022.53;4224849;28;20053;-58
2023/03/12 05:35:57;;;;;;;;;;;;;;;2.53;52.88;94025.44;4196657;28;19921;-56
2023/03/12 05:37:59;;;;;;;;;;;;;;;2.40;53.24;94035.97;4207274;28;19973;-56
2023/03/12 05:40:00;;;;;;;;;;;;;;;2.27;53.90;94040.50;4214582;28;19969;-55
2023/03/12 05:42:02;;;;;;;;;;;;;;;2.16;54.04;94035.38;4199341;28;20032;-57
2023/03/12 05:44:03;;;;;;;;;;;;;;;2.28;53.37;94044.72;4203415;28;20366;-56
2023/03/12 05:46:05;;;;;;;;;;;;;;;2.12;53.32;94039.97;4198483;28;19968;-55
2023/03/12 05:48:06;;;;;;;;;;;;;;;2.24;53.23;94049.31;4213776;28;19924;-58
2023/03/12 05:50:10;;;;;;;;;;;;;;;2.03;55.10;94051.88;4228213;28;19967;-58
2023/03/12 05:52:11;;;;;;;;;;;;;;;1.79;56.86;94048.69;4231427;27;20366;-55
2023/03/12 05:54:13;;;;;;;;;;;;;;;1.79;57.13;94057.25;4221467;28;20357;-55
2023/03/12 05:56:15;;;;;;;;;;;;;;;1.88;56.31;94052.28;4219982;28;19978;-52
2023/03/12 05:58:17;;;;;;;;;;;;;;;2.20;55.29;94047.94;4214209;28;20691;-53
2023/03/12 06:00:18;;;;;;;;;;;;;;;2.30;54.84;94054.94;4200545;28;19942;-56
2023/03/12 06:02:20;;;;;;;;;;;;;;;2.38;54.63;94055.94;4201859;28;19920;-55
2023/03/12 06:04:21;;;;;;;;;;;;;;;2.55;52.82;94075.25;4212444;28;20412;-56
2023/03/12 06:06:23;;;;;;;;;;;;;;;2.69;53.15;94068.13;4203338;28;19993;-55
2023/03/12 06:08:25;;;;;;;;;;;;;;;2.49;53.54;94083.50;4201943;28;19966;-51
2023/03/12 06:10:26;;;;;;;;;;;;;;;2.22;54.41;94078.81;4210965;28;19921;-52
2023/03/12 06:12:28;;;;;;;;;;;;;;;1.75;55.01;94081.66;4198412;28;19972;-54
2023/03/12 06:14:29;;;;;;;;;;;;;;;1.79;55.93;94080.47;4210716;28;19986;-56
2023/03/12 06:16:31;;;;;;;;;;;;;;;2.02;55.18;94070.91;4214555;28;20288;-53
2023/03/12 06:18:33;;;;;;;;;;;;;;;2.02;54.41;94077.81;4202719;28;19920;-52
2023/03/12 06:20:34;;;;;;;;;;;;;;;1.95;54.94;94087.00;4205372;28;20382;-54
2023/03/12 06:22:36;;;;;;;;;;;;;;;1.82;55.75;94087.16;4213782;28;19973;-53
2023/03/12 06:24:37;;;;;;;;;;;;;;;1.91;56.01;94094.16;4207384;28;19919;-53
2023/03/12 06:26:39;;;;;;;;;;;;;;;1.64;57.40;94102.34;4222443;28;20297;-52
2023/03/12 06:28:41;;;;;;;;;;;;;;;1.79;57.12;94098.56;4214513;28;19923;-52
2023/03/12 06:30:42;;;;;;;;;;;;;;;1.96;56.61;94110.16;4200911;28;19924;-57
2023/03/12 06:32:44;;;;;;;;;;;;;;;1.88;56.67;94119.44;4199061;28;20366;-55
2023/03/12 06:34:45;;;;;;;;;;;;;;;1.95;56.98;94121.41;4197884;28;19921;-56
2023/03/12 06:36:47;;;;;;;;;;;;;;;2.14;56.32;94125.13;4197370;28;19921;-54
2023/03/12 06:38:48;;;;;;;;;;;;;;;1.99;56.64;94130.56;4200001;28;19974;-55
2023/03/12 06:40:54;;;;;;;;;;;;;;;2.01;56.84;94126.09;4203802;28;20376;-50
2023/03/12 06:42:55;;;;;;;;;;;;;;;2.03;56.05;94142.28;4205353;28;20015;-58
2023/03/12 06:44:57;;;;;;;;;;;;;;;2.02;56.64;94127.75;4201689;28;20099;-57
2023/03/12 06:46:58;;;;;;;;;;;;;;;1.97;57.14;94136.78;4201672;28;19920;-59
2023/03/12 06:49:00;;;;;;;;;;;;;;;1.67;57.40;94150.34;4208798;28;19931;-58
2023/03/12 06:51:04;;;;;;;;;;;;;;;1.71;57.61;94131.91;4197797;28;19973;-59
2023/03/12 06:53:06;;;;;;;;;;;;;;;1.57;56.39;94156.22;4199908;28;20001;-55
2023/03/12 06:55:08;;;;;;;;;;;;;;;1.93;56.80;94138.78;4198816;28;20110;-58
2023/03/12 06:57:09;;;;;;;;;;;;;;;2.17;56.58;94158.47;4210189;28;19920;-56
2023/03/12 06:59:11;;;;;;;;;;;;;;;2.26;55.83;94150.00;4201153;28;19920;-57
2023/03/12 07:01:12;;;;;;;;;;;;;;;2.27;55.07;94154.22;4213001;28;19927;-61
2023/03/12 07:03:14;;;;;;;;;;;;;;;1.88;55.28;94166.75;4202577;28;19920;-56
2023/03/12 07:05:15;;;;;;;;;;;;;;;2.09;55.03;94182.34;4213370;28;20416;-56
2023/03/12 07:07:18;;;;;;;;;;;;;;;1.97;53.49;94163.44;4209904;28;20255;-59
2023/03/12 07:09:20;;;;;;;;;;;;;;;1.82;52.68;94175.78;4197976;28;20010;-59
2023/03/12 07:11:22;;;;;;;;;;;;;;;1.62;53.24;94174.75;4198107;28;20158;-57
2023/03/12 07:13:23;;;;;;;;;;;;;;;1.67;53.25;94173.56;4201826;28;19939;-57
2023/03/12 07:15:25;;;;;;;;;;;;;;;1.67;53.48;94176.16;4208441;28;19920;-56
2023/03/12 07:17:26;;;;;;;;;;;;;;;1.83;53.10;94177.44;4198431;28;19920;-58
2023/03/12 07:19:29;;;;;;;;;;;;;;;1.93;53.37;94169.78;4210715;28;19931;-58
2023/03/12 07:21:30;;;;;;;;;;;;;;;1.69;54.13;94177.69;4197948;28;19920;-58
2023/03/12 07:23:32;;;;;;;;;;;;;;;1.81;53.64;94186.25;4211798;28;19920;-57
2023/03/12 07:25:35;;;;;;;;;;;;;;;2.01;53.77;94198.44;4225264;28;19956;-59
2023/03/12 07:27:36;;;;;;;;;;;;;;;1.81;53.79;94212.91;4229649;28;19920;-60
2023/03/12 07:29:38;;;;;;;;;;;;;;;2.02;54.23;94200.09;4229498;28;19965;-59
2023/03/12 07:31:39;;;;;;;;;;;;;;;2.25;53.26;94190.50;4229356;28;20322;-57
2023/03/12 07:33:41;;;;;;;;;;;;;;;2.34;53.93;94207.06;4229042;28;20385;-58
2023/03/12 07:35:44;;;;;;;;;;;;;;;2.68;53.04;94196.63;4224390;28;19985;-56
2023/03/12 07:37:45;;;;;;;;;;;;;;;2.36;52.83;94205.16;4228778;28;19920;-58
2023/03/12 07:39:51;;;;;;;;;;;;;;;2.25;52.98;94200.03;4227952;28;19926;-57
2023/03/12 07:41:52;;;;;;;;;;;;;;;2.19;53.30;94203.09;4224534;28;19978;-60
2023/03/12 07:43:54;;;;;;;;;;;;;;;2.03;53.17;94203.50;4225663;28;19923;-55
2023/03/12 07:45:55;;;;;;;;;;;;;;;2.29;53.66;94200.63;4219910;28;20010;-57
2023/03/12 07:47:57;;;;;;;;;;;;;;;2.42;52.68;94216.81;4228777;28;20286;-59
2023/03/12 07:50:00;;;;;;;;;;;;;;;2.62;52.70;94220.38;4225692;28;20299;-57
2023/03/12 07:52:03;;;;;;;;;;;;;;;2.78;50.29;94210.47;4228550;28;19924;-59
2023/03/12 07:54:05;;;;;;;;;;;;;;;3.08;49.29;94209.72;4227035;28;19923;-59
2023/03/12 07:56:06;;;;;;;;;;;;;;;3.12;49.01;94192.19;4221131;28;19993;-59
2023/03/12 07:58:08;;;;;;;;;;;;;;;3.18;48.40;94212.38;4222131;28;19920;-60
2023/03/12 08:00:10;;;;;;;;;;;;;;;3.46;47.23;94200.56;4229193;28;20371;-58
2023/03/12 08:02:12;;;;;;;;;;;;;;;3.39;47.03;94216.72;4228700;28;19928;-57
2023/03/12 08:04:14;;;;;;;;;;;;;;;3.40;46.54;94213.19;4226408;28;19924;-57
2023/03/12 08:06:15;;;;;;;;;;;;;;;3.42;46.71;94217.31;4209596;28;19950;-58
2023/03/12 08:08:17;;;;;;;;;;;;;;;3.54;46.28;94225.81;4198865;28;19920;-59
2023/03/12 08:10:19;;;;;;;;;;;;;;;3.57;45.74;94220.38;4199710;28;19926;-56
2023/03/12 08:12:21;;;;;;;;;;;;;;;3.69;45.80;94216.75;4194900;28;19950;-58
2023/03/12 08:14:22;;;;;;;;;;;;;;;3.78;45.99;94207.38;4196523;28;19939;-56
2023/03/12 08:16:24;;;;;;;;;;;;;;;3.56;46.66;94218.72;4197356;28;19970;-58
2023/03/12 08:18:25;;;;;;;;;;;;;;;3.59;46.29;94228.00;4209307;28;20426;-58
2023/03/12 08:20:27;;;;;;;;;;;;;;;3.70;46.89;94233.13;4195091;28;19959;-57
2023/03/12 08:22:28;;;;;;;;;;;;;;;3.72;45.98;94225.22;4212648;28;19920;-59
2023/03/12 08:24:30;;;;;;;;;;;;;;;3.71;46.27;94223.59;4215506;28;20297;-60
2023/03/12 08:26:31;;;;;;;;;;;;;;;3.81;45.82;94229.66;4216546;28;19974;-58
2023/03/12 08:28:33;;;;;;;;;;;;;;;4.00;46.76;94236.66;4216803;28;20373;-58
2023/03/12 08:30:34;;;;;;;;;;;;;;;4.14;45.64;94248.44;4228603;28;20362;-59
2023/03/12 08:32:36;;;;;;;;;;;;;;;4.09;45.70;94261.81;4211829;28;19978;-58
2023/03/12 08:34:37;;;;;;;;;;;;;;;4.17;45.17;94253.38;4206966;28;19978;-60
2023/03/12 08:36:39;;;;;;;;;;;;;;;4.20;45.91;94240.97;4203545;28;20371;-58
2023/03/12 08:38:41;;;;;;;;;;;;;;;4.30;44.23;94247.00;4229537;28;19920;-61
2023/03/12 08:40:43;;;;;;;;;;;;;;;4.33;45.15;94260.66;4232718;28;19954;-57
2023/03/12 08:42:44;;;;;;;;;;;;;;;4.42;45.19;94252.09;4232259;28;19923;-60
2023/03/12 08:44:46;;;;;;;;;;;;;;;4.43;44.39;94270.13;4215867;28;19920;-59
2023/03/12 08:46:47;;;;;;;;;;;;;;;4.41;44.56;94266.84;4230099;28;19920;-58
2023/03/12 08:48:49;;;;;;;;;;;;;;;3.74;44.35;94267.34;4232672;28;20411;-59
2023/03/12 08:50:53;;;;;;;;;;;;;;;3.99;45.79;94264.34;4230654;28;19945;-55
2023/03/12 08:52:55;;;;;;;;;;;;;;;4.11;44.78;94254.72;4232308;28;19928;-59
2023/03/12 08:54:56;;;;;;;;;;;;;;;4.29;45.39;94263.50;4199308;28;19936;-57
2023/03/12 08:56:58;;;;;;;;;;;;;;;4.46;44.82;94269.03;4210468;28;19924;-56
2023/03/12 08:59:00;;;;;;;;;;;;;;;4.57;43.72;94268.91;4199531;28;20317;-58
2023/03/12 09:01:06;;;;;;;;;;;;;;;3.93;44.04;94277.00;4205053;28;20447;-61
2023/03/12 09:03:11;;;;;;;;;;;;;;;3.17;45.90;94279.81;4204611;28;19943;-60
2023/03/12 09:05:13;;;;;;;;;;;;;;;3.29;46.52;94273.59;4214730;28;19923;-57
2023/03/12 09:07:17;;;;;;;;;;;;;;;3.65;45.95;94274.13;4210680;28;20369;-60
2023/03/12 09:09:18;;;;;;;;;;;;;;;3.49;46.00;94274.59;4199043;28;19920;-61
2023/03/12 09:11:20;;;;;;;;;;;;;;;2.97;46.72;94271.03;4198585;28;19927;-61
2023/03/12 09:13:21;;;;;;;;;;;;;;;3.05;47.36;94269.50;4229279;28;20293;-58
2023/03/12 09:15:23;;;;;;;;;;;;;;;3.39;47.15;94274.50;4231595;28;19928;-59
2023/03/12 09:17:24;;;;;;;;;;;;;;;3.90;46.04;94265.13;4223855;28;20297;-58
2023/03/12 09:19:26;;;;;;;;;;;;;;;4.12;45.95;94261.53;4216039;28;19970;-58
2023/03/12 09:21:27;;;;;;;;;;;;;;;4.57;45.69;94261.13;4203792;28;19924;-58
2023/03/12 09:23:29;;;;;;;;;;;;;;;4.48;45.85;94264.53;4206893;28;20341;-59
2023/03/12 09:25:30;;;;;;;;;;;;;;;4.93;44.71;94257.09;4198716;28;20366;-64
2023/03/12 09:27:36;;;;;;;;;;;;;;;4.57;43.08;94260.31;4216244;28;20308;-60
2023/03/12 09:29:38;;;;;;;;;;;;;;;3.82;44.88;94281.31;4232063;28;19941;-57
2023/03/12 09:31:57;;;;;;;;;;;;;;;3.66;46.31;94262.84;4231457;28;19953;-59
2023/03/12 09:33:58;;;;;;;;;;;;;;;3.90;46.22;94255.59;4212662;28;19932;-59
2023/03/12 09:36:01;;;;;;;;;;;;;;;4.29;44.68;94255.72;4197017;28;20328;-58
2023/03/12 09:38:02;;;;;;;;;;;;;;;4.35;44.86;94267.34;4198780;28;19982;-59
2023/03/12 09:40:06;;;;;;;;;;;;;;;4.23;45.21;94252.84;4198914;28;19924;-60
2023/03/12 09:42:11;;;;;;;;;;;;;;;4.61;45.84;94264.28;4198410;28;19970;-58
2023/03/12 09:44:15;;;;;;;;;;;;;;;4.62;44.01;94274.50;4198852;28;19920;-60
2023/03/12 09:46:19;;;;;;;;;;;;;;;4.45;44.84;94247.47;4207801;28;19920;-58
2023/03/12 09:48:29;;;;;;;;;;;;;;;4.20;44.90;94266.09;4199495;28;20353;-56
2023/03/12 09:50:32;;;;;;;;;;;;;;;3.69;45.50;94280.69;4195731;28;19920;-57
2023/03/12 09:52:57;;;;;;;;;;;;;;;3.84;45.99;94263.88;4199234;28;19920;-60
2023/03/12 09:55:04;;;;;;;;;;;;;;;4.10;46.25;94268.63;4192939;28;20567;-59
2023/03/12 09:57:09;;;;;;;;;;;;;;;4.51;45.47;94246.91;4211172;28;20359;-60
2023/03/12 09:59:11;;;;;;;;;;;;;;;5.03;44.19;94251.88;4225793;28;20416;-57
2023/03/12 10:01:31;;;;;;;;;;;;;;;5.07;44.22;94253.25;4214431;28;19943;-58
2023/03/12 10:03:48;;;;;;;;;;;;;;;5.12;43.02;94251.09;4202227;28;19920;-58
2023/03/12 10:06:06;;;;;;;;;;;;;;;5.25;41.71;94253.41;4209299;28;20470;-59
2023/03/12 10:08:07;;;;;;;;;;;;;;;5.15;42.44;94249.19;4229374;28;19924;-57
2023/03/12 10:10:31;;;;;;;;;;;;;;;5.01;43.01;94245.19;4230084;28;19919;-60
2023/03/12 10:12:39;;;;;;;;;;;;;;;5.23;43.76;94244.13;4230143;28;19919;-58
2023/03/12 10:14:53;;;;;;;;;;;;;;;5.44;41.91;94246.53;4230480;28;19923;-61
2023/03/12 10:17:15;;;;;;;;;;;;;;;4.89;41.63;94253.13;4230037;28;19953;-58
2023/03/12 10:19:23;;;;;;;;;;;;;;;4.90;42.72;94231.41;4219575;28;19920;-57
2023/03/12 10:21:43;;;;;;;;;;;;;;;5.36;42.42;94236.06;4225570;28;19928;-60
2023/03/12 10:23:48;;;;;;;;;;;;;;;5.67;41.34;94242.66;4214220;28;19943;-59
2023/03/12 10:25:59;;;;;;;;;;;;;;;5.06;42.53;94248.22;4214016;28;19920;-56
2023/03/12 10:28:14;;;;;;;;;;;;;;;4.82;42.20;94246.00;4214596;28;19983;-59
2023/03/12 10:30:17;;;;;;;;;;;;;;;4.97;43.13;94246.41;4202406;28;19920;-60
2023/03/12 10:32:21;;;;;;;;;;;;;;;5.19;41.12;94247.94;4197943;28;19935;-59
2023/03/12 10:34:41;;;;;;;;;;;;;;;5.64;41.51;94237.75;4197615;28;19956;-60
2023/03/12 10:36:42;;;;;;;;;;;;;;;5.24;40.73;94256.13;4197268;28;20396;-59
2023/03/12 10:38:44;;;;;;;;;;;;;;;5.04;41.50;94247.53;4211236;28;19920;-57
2023/03/12 10:40:45;;;;;;;;;;;;;;;5.15;41.96;94254.38;4214245;28;20262;-59
2023/03/12 10:42:47;;;;;;;;;;;;;;;5.21;41.27;94238.25;4213122;28;19969;-58
2023/03/12 10:44:53;;;;;;;;;;;;;;;5.46;41.82;94245.47;4201762;28;20248;-61
2023/03/12 10:46:54;;;;;;;;;;;;;;;4.83;42.28;94263.22;4200241;28;20316;-58
2023/03/12 10:49:19;;;;;;;;;;;;;;;4.53;41.77;94271.91;4207936;28;19950;-56
2023/03/12 10:51:20;;;;;;;;;;;;;;;4.76;41.21;94243.97;4188625;28;20436;-60